sensor_id;sensor_type;location;lat;lon;timestamp;P1;durP1;ratioP1;P2;durP2;ratioP2
45072;SDS011;30836;48.906;9.140;2022-08-05T00:00:21;87;;;70;;
45072;SDS011;30836;48.906;9.140;2022-08-05T00:01:22;82;;;66;;
45072;SDS011;30836;48.906;9.140;2022-08-05T00:02:22;80;;;64;;
45072;SDS011;30836;48.906;9.140;2022-08-05T00:03:23;80;;;64;;
45072;SDS011;30836;48.906;9.140;2022-08-05T00:04:23;80;;;64;;
45072;SDS011;30836;48.906;9.140;2022-08-05T00:05:24;78;;;63;;
45072;SDS011;30836;48.906;9.140;2022-08-05T00:06:24;78;;;63;;
45072;SDS011;30836;48.906;9.140;2022-08-05T00:07:25;80;;;64;;
45072;SDS011;30836;48.906;9.140;2022-08-05T00:08:25;82;;;66;;
45072;SDS011;30836;48.906;9.140;2022-08-05T00:09:26;86;;;69;;
45072;SDS011;30836;48.906;9.140;2022-08-05T00:10:26;80;;;64;;
45072;SDS011;30836;48.906;9.140;2022-08-05T00:11:27;80;;;64;;
45072;SDS011;30836;48.906;9.140;2022-08-05T00:12:27;83;;;67;;
45072;SDS011;30836;48.906;9.140;2022-08-05T00:13:34;94;;;76;;
45072;SDS011;30836;48.906;9.140;2022-08-05T00:14:35;97;;;78;;
45072;SDS011;30836;48.906;9.140;2022-08-05T00:15:35;88;;;71;;
45072;SDS011;30836;48.906;9.140;2022-08-05T00:16:35;82;;;66;;
45072;SDS011;30836;48.906;9.140;2022-08-05T00:17:36;74;;;60;;
45072;SDS011;30836;48.906;9.140;2022-08-05T00:18:37;72;;;58;;
45072;SDS011;30836;48.906;9.140;2022-08-05T00:19:38;74;;;60;;
45072;SDS011;30836;48.906;9.140;2022-08-05T00:20:38;76;;;61;;
45072;SDS011;30836;48.906;9.140;2022-08-05T00:21:39;75;;;61;;
45072;SDS011;30836;48.906;9.140;2022-08-05T00:22:39;89;;;72;;
45072;SDS011;30836;48.906;9.140;2022-08-05T00:23:43;82;;;66;;
45072;SDS011;30836;48.906;9.140;2022-08-05T00:24:43;72;;;58;;
45072;SDS011;30836;48.906;9.140;2022-08-05T00:25:44;68;;;55;;
45072;SDS011;30836;48.906;9.140;2022-08-05T00:26:44;60;;;49;;
45072;SDS011;30836;48.906;9.140;2022-08-05T00:27:45;57;;;46;;
45072;SDS011;30836;48.906;9.140;2022-08-05T00:28:45;58;;;47;;
45072;SDS011;30836;48.906;9.140;2022-08-05T00:29:45;64;;;52;;
45072;SDS011;30836;48.906;9.140;2022-08-05T00:30:46;70;;;57;;
45072;SDS011;30836;48.906;9.140;2022-08-05T00:31:47;72;;;58;;
45072;SDS011;30836;48.906;9.140;2022-08-05T00:32:48;69;;;56;;
45072;SDS011;30836;48.906;9.140;2022-08-05T00:33:48;68;;;55;;
45072;SDS011;30836;48.906;9.140;2022-08-05T00:34:48;69;;;56;;
45072;SDS011;30836;48.906;9.140;2022-08-05T00:35:49;64;;;52;;
45072;SDS011;30836;48.906;9.140;2022-08-05T00:36:50;66;;;53;;
45072;SDS011;30836;48.906;9.140;2022-08-05T00:37:50;64;;;52;;
45072;SDS011;30836;48.906;9.140;2022-08-05T00:38:51;64;;;52;;
45072;SDS011;30836;48.906;9.140;2022-08-05T00:39:51;58;;;47;;
45072;SDS011;30836;48.906;9.140;2022-08-05T00:40:54;58;;;47;;
45072;SDS011;30836;48.906;9.140;2022-08-05T00:41:55;58;;;47;;
45072;SDS011;30836;48.906;9.140;2022-08-05T00:43:01;57;;;46;;
45072;SDS011;30836;48.906;9.140;2022-08-05T00:44:02;58;;;47;;
45072;SDS011;30836;48.906;9.140;2022-08-05T00:45:05;60;;;49;;
45072;SDS011;30836;48.906;9.140;2022-08-05T00:46:06;58;;;47;;
45072;SDS011;30836;48.906;9.140;2022-08-05T00:47:06;60;;;49;;
45072;SDS011;30836;48.906;9.140;2022-08-05T00:48:07;58;;;47;;
45072;SDS011;30836;48.906;9.140;2022-08-05T00:49:08;58;;;47;;
45072;SDS011;30836;48.906;9.140;2022-08-05T00:50:08;58;;;47;;
45072;SDS011;30836;48.906;9.140;2022-08-05T00:51:09;57;;;46;;
45072;SDS011;30836;48.906;9.140;2022-08-05T00:52:10;57;;;46;;
45072;SDS011;30836;48.906;9.140;2022-08-05T00:53:10;57;;;46;;
45072;SDS011;30836;48.906;9.140;2022-08-05T00:54:12;57;;;46;;
45072;SDS011;30836;48.906;9.140;2022-08-05T00:55:12;54;;;44;;
45072;SDS011;30836;48.906;9.140;2022-08-05T00:56:16;54;;;44;;
45072;SDS011;30836;48.906;9.140;2022-08-05T00:57:17;53;;;43;;
45072;SDS011;30836;48.906;9.140;2022-08-05T00:58:17;48;;;39;;
45072;SDS011;30836;48.906;9.140;2022-08-05T00:59:18;47;;;38;;
45072;SDS011;30836;48.906;9.140;2022-08-05T01:00:18;45;;;36;;
45072;SDS011;30836;48.906;9.140;2022-08-05T01:01:19;47;;;38;;
45072;SDS011;30836;48.906;9.140;2022-08-05T01:02:19;45;;;36;;
45072;SDS011;30836;48.906;9.140;2022-08-05T01:03:20;46;;;37;;
45072;SDS011;30836;48.906;9.140;2022-08-05T01:04:20;44;;;35;;
45072;SDS011;30836;48.906;9.140;2022-08-05T01:05:20;46;;;37;;
45072;SDS011;30836;48.906;9.140;2022-08-05T01:06:21;46;;;37;;
45072;SDS011;30836;48.906;9.140;2022-08-05T01:07:21;44;;;35;;
45072;SDS011;30836;48.906;9.140;2022-08-05T01:08:22;42;;;34;;
45072;SDS011;30836;48.906;9.140;2022-08-05T01:09:23;43;;;35;;
45072;SDS011;30836;48.906;9.140;2022-08-05T01:10:30;42;;;34;;
45072;SDS011;30836;48.906;9.140;2022-08-05T01:11:36;42;;;34;;
45072;SDS011;30836;48.906;9.140;2022-08-05T01:11:49;43;;;35;;
45072;SDS011;30836;48.906;9.140;2022-08-05T01:12:54;43;;;35;;
45072;SDS011;30836;48.906;9.140;2022-08-05T01:15:03;41;;;33;;
45072;SDS011;30836;48.906;9.140;2022-08-05T01:16:13;40;;;32;;
45072;SDS011;30836;48.906;9.140;2022-08-05T01:18:08;42;;;34;;
45072;SDS011;30836;48.906;9.140;2022-08-05T01:18:39;40;;;32;;
45072;SDS011;30836;48.906;9.140;2022-08-05T01:19:47;44;;;35;;
45072;SDS011;30836;48.906;9.140;2022-08-05T01:23:17;46;;;37;;
45072;SDS011;30836;48.906;9.140;2022-08-05T01:25:36;46;;;37;;
45072;SDS011;30836;48.906;9.140;2022-08-05T01:26:45;45;;;36;;
45072;SDS011;30836;48.906;9.140;2022-08-05T01:29:04;46;;;37;;
45072;SDS011;30836;48.906;9.140;2022-08-05T01:30:08;42;;;34;;
45072;SDS011;30836;48.906;9.140;2022-08-05T01:32:22;44;;;35;;
45072;SDS011;30836;48.906;9.140;2022-08-05T01:33:28;44;;;35;;
45072;SDS011;30836;48.906;9.140;2022-08-05T01:34:34;44;;;35;;
45072;SDS011;30836;48.906;9.140;2022-08-05T01:35:39;44;;;35;;
45072;SDS011;30836;48.906;9.140;2022-08-05T01:36:48;43;;;35;;
45072;SDS011;30836;48.906;9.140;2022-08-05T01:37:54;45;;;36;;
45072;SDS011;30836;48.906;9.140;2022-08-05T01:38:56;46;;;37;;
45072;SDS011;30836;48.906;9.140;2022-08-05T01:39:57;43;;;35;;
45072;SDS011;30836;48.906;9.140;2022-08-05T01:40:58;44;;;35;;
45072;SDS011;30836;48.906;9.140;2022-08-05T01:42:00;46;;;37;;
45072;SDS011;30836;48.906;9.140;2022-08-05T01:43:02;47;;;38;;
45072;SDS011;30836;48.906;9.140;2022-08-05T01:44:05;47;;;38;;
45072;SDS011;30836;48.906;9.140;2022-08-05T01:45:08;47;;;38;;
45072;SDS011;30836;48.906;9.140;2022-08-05T01:46:09;46;;;37;;
45072;SDS011;30836;48.906;9.140;2022-08-05T01:47:11;42;;;34;;
45072;SDS011;30836;48.906;9.140;2022-08-05T01:48:15;46;;;37;;
45072;SDS011;30836;48.906;9.140;2022-08-05T01:49:20;46;;;37;;
45072;SDS011;30836;48.906;9.140;2022-08-05T01:50:28;47;;;38;;
45072;SDS011;30836;48.906;9.140;2022-08-05T01:51:34;44;;;35;;
45072;SDS011;30836;48.906;9.140;2022-08-05T01:52:37;44;;;35;;
45072;SDS011;30836;48.906;9.140;2022-08-05T01:53:40;44;;;35;;
45072;SDS011;30836;48.906;9.140;2022-08-05T01:54:45;45;;;36;;
45072;SDS011;30836;48.906;9.140;2022-08-05T01:55:48;42;;;34;;
45072;SDS011;30836;48.906;9.140;2022-08-05T01:56:49;44;;;35;;
45072;SDS011;30836;48.906;9.140;2022-08-05T01:57:52;42;;;34;;
45072;SDS011;30836;48.906;9.140;2022-08-05T01:58:53;43;;;35;;
45072;SDS011;30836;48.906;9.140;2022-08-05T01:59:58;42;;;34;;
45072;SDS011;30836;48.906;9.140;2022-08-05T02:01:01;44;;;35;;
45072;SDS011;30836;48.906;9.140;2022-08-05T02:02:02;44;;;35;;
45072;SDS011;30836;48.906;9.140;2022-08-05T02:03:10;44;;;35;;
45072;SDS011;30836;48.906;9.140;2022-08-05T02:04:13;42;;;34;;
45072;SDS011;30836;48.906;9.140;2022-08-05T02:05:17;47;;;38;;
45072;SDS011;30836;48.906;9.140;2022-08-05T02:06:19;44;;;35;;
45072;SDS011;30836;48.906;9.140;2022-08-05T02:07:20;44;;;35;;
45072;SDS011;30836;48.906;9.140;2022-08-05T02:08:20;43;;;35;;
45072;SDS011;30836;48.906;9.140;2022-08-05T02:09:22;44;;;35;;
45072;SDS011;30836;48.906;9.140;2022-08-05T02:10:25;44;;;35;;
45072;SDS011;30836;48.906;9.140;2022-08-05T02:11:36;44;;;35;;
45072;SDS011;30836;48.906;9.140;2022-08-05T02:12:46;41;;;33;;
45072;SDS011;30836;48.906;9.140;2022-08-05T02:13:55;41;;;33;;
45072;SDS011;30836;48.906;9.140;2022-08-05T02:16:20;41;;;33;;
45072;SDS011;30836;48.906;9.140;2022-08-05T02:17:28;42;;;34;;
45072;SDS011;30836;48.906;9.140;2022-08-05T02:19:45;44;;;35;;
45072;SDS011;30836;48.906;9.140;2022-08-05T02:20:53;44;;;35;;
45072;SDS011;30836;48.906;9.140;2022-08-05T02:22:01;44;;;35;;
45072;SDS011;30836;48.906;9.140;2022-08-05T02:23:08;46;;;37;;
45072;SDS011;30836;48.906;9.140;2022-08-05T02:24:16;42;;;34;;
45072;SDS011;30836;48.906;9.140;2022-08-05T02:25:21;42;;;34;;
45072;SDS011;30836;48.906;9.140;2022-08-05T02:26:35;43;;;35;;
45072;SDS011;30836;48.906;9.140;2022-08-05T02:27:39;40;;;32;;
45072;SDS011;30836;48.906;9.140;2022-08-05T02:28:42;42;;;34;;
45072;SDS011;30836;48.906;9.140;2022-08-05T02:29:44;47;;;38;;
45072;SDS011;30836;48.906;9.140;2022-08-05T02:30:51;45;;;36;;
45072;SDS011;30836;48.906;9.140;2022-08-05T02:31:56;47;;;38;;
45072;SDS011;30836;48.906;9.140;2022-08-05T02:32:58;44;;;35;;
45072;SDS011;30836;48.906;9.140;2022-08-05T02:34:02;46;;;37;;
45072;SDS011;30836;48.906;9.140;2022-08-05T02:35:07;45;;;36;;
45072;SDS011;30836;48.906;9.140;2022-08-05T02:36:11;47;;;38;;
45072;SDS011;30836;48.906;9.140;2022-08-05T02:37:13;46;;;37;;
45072;SDS011;30836;48.906;9.140;2022-08-05T02:38:14;49;;;40;;
45072;SDS011;30836;48.906;9.140;2022-08-05T02:39:16;51;;;41;;
45072;SDS011;30836;48.906;9.140;2022-08-05T02:40:18;51;;;41;;
45072;SDS011;30836;48.906;9.140;2022-08-05T02:41:22;51;;;41;;
45072;SDS011;30836;48.906;9.140;2022-08-05T02:42:25;51;;;41;;
45072;SDS011;30836;48.906;9.140;2022-08-05T02:43:26;51;;;41;;
45072;SDS011;30836;48.906;9.140;2022-08-05T02:44:29;51;;;41;;
45072;SDS011;30836;48.906;9.140;2022-08-05T02:45:31;47;;;38;;
45072;SDS011;30836;48.906;9.140;2022-08-05T02:46:33;51;;;41;;
45072;SDS011;30836;48.906;9.140;2022-08-05T02:47:35;51;;;41;;
45072;SDS011;30836;48.906;9.140;2022-08-05T02:48:37;49;;;40;;
45072;SDS011;30836;48.906;9.140;2022-08-05T02:49:39;51;;;41;;
45072;SDS011;30836;48.906;9.140;2022-08-05T02:50:42;49;;;40;;
45072;SDS011;30836;48.906;9.140;2022-08-05T02:51:44;52;;;42;;
45072;SDS011;30836;48.906;9.140;2022-08-05T02:51:56;51;;;41;;
45072;SDS011;30836;48.906;9.140;2022-08-05T02:52:57;51;;;41;;
45072;SDS011;30836;48.906;9.140;2022-08-05T02:53:59;51;;;41;;
45072;SDS011;30836;48.906;9.140;2022-08-05T02:55:02;51;;;41;;
45072;SDS011;30836;48.906;9.140;2022-08-05T02:56:05;51;;;41;;
45072;SDS011;30836;48.906;9.140;2022-08-05T02:57:10;51;;;41;;
45072;SDS011;30836;48.906;9.140;2022-08-05T02:58:14;52;;;42;;
45072;SDS011;30836;48.906;9.140;2022-08-05T02:59:17;53;;;43;;
45072;SDS011;30836;48.906;9.140;2022-08-05T03:00:19;52;;;42;;
45072;SDS011;30836;48.906;9.140;2022-08-05T03:01:23;51;;;41;;
45072;SDS011;30836;48.906;9.140;2022-08-05T03:02:28;49;;;40;;
45072;SDS011;30836;48.906;9.140;2022-08-05T03:03:41;49;;;40;;
45072;SDS011;30836;48.906;9.140;2022-08-05T03:04:43;47;;;38;;
45072;SDS011;30836;48.906;9.140;2022-08-05T03:05:46;49;;;40;;
45072;SDS011;30836;48.906;9.140;2022-08-05T03:06:46;45;;;36;;
45072;SDS011;30836;48.906;9.140;2022-08-05T03:07:47;44;;;35;;
45072;SDS011;30836;48.906;9.140;2022-08-05T03:08:49;44;;;35;;
45072;SDS011;30836;48.906;9.140;2022-08-05T03:09:51;41;;;33;;
45072;SDS011;30836;48.906;9.140;2022-08-05T03:10:51;42;;;34;;
45072;SDS011;30836;48.906;9.140;2022-08-05T03:11:52;46;;;37;;
45072;SDS011;30836;48.906;9.140;2022-08-05T03:12:52;44;;;35;;
45072;SDS011;30836;48.906;9.140;2022-08-05T03:13:53;42;;;34;;
45072;SDS011;30836;48.906;9.140;2022-08-05T03:14:53;44;;;35;;
45072;SDS011;30836;48.906;9.140;2022-08-05T03:15:54;46;;;37;;
45072;SDS011;30836;48.906;9.140;2022-08-05T03:16:55;43;;;35;;
45072;SDS011;30836;48.906;9.140;2022-08-05T03:17:55;40;;;32;;
45072;SDS011;30836;48.906;9.140;2022-08-05T03:18:56;36;;;29;;
45072;SDS011;30836;48.906;9.140;2022-08-05T03:19:56;38;;;30;;
45072;SDS011;30836;48.906;9.140;2022-08-05T03:20:57;37;;;30;;
45072;SDS011;30836;48.906;9.140;2022-08-05T03:21:57;40;;;32;;
45072;SDS011;30836;48.906;9.140;2022-08-05T03:22:58;40;;;32;;
45072;SDS011;30836;48.906;9.140;2022-08-05T03:23:59;40;;;32;;
45072;SDS011;30836;48.906;9.140;2022-08-05T03:25:00;41;;;33;;
45072;SDS011;30836;48.906;9.140;2022-08-05T03:26:02;39;;;31;;
45072;SDS011;30836;48.906;9.140;2022-08-05T03:27:02;45;;;36;;
45072;SDS011;30836;48.906;9.140;2022-08-05T03:28:04;41;;;33;;
45072;SDS011;30836;48.906;9.140;2022-08-05T03:29:05;42;;;34;;
45072;SDS011;30836;48.906;9.140;2022-08-05T03:30:06;45;;;36;;
45072;SDS011;30836;48.906;9.140;2022-08-05T03:31:07;40;;;32;;
45072;SDS011;30836;48.906;9.140;2022-08-05T03:32:09;49;;;40;;
45072;SDS011;30836;48.906;9.140;2022-08-05T03:33:09;48;;;39;;
45072;SDS011;30836;48.906;9.140;2022-08-05T03:34:10;43;;;35;;
45072;SDS011;30836;48.906;9.140;2022-08-05T03:35:12;51;;;41;;
45072;SDS011;30836;48.906;9.140;2022-08-05T03:36:12;51;;;41;;
45072;SDS011;30836;48.906;9.140;2022-08-05T03:37:13;40;;;32;;
45072;SDS011;30836;48.906;9.140;2022-08-05T03:38:14;40;;;32;;
45072;SDS011;30836;48.906;9.140;2022-08-05T03:39:14;40;;;32;;
45072;SDS011;30836;48.906;9.140;2022-08-05T03:40:14;37;;;30;;
45072;SDS011;30836;48.906;9.140;2022-08-05T03:41:15;39;;;31;;
45072;SDS011;30836;48.906;9.140;2022-08-05T03:42:16;39;;;31;;
45072;SDS011;30836;48.906;9.140;2022-08-05T03:43:16;35;;;28;;
45072;SDS011;30836;48.906;9.140;2022-08-05T03:44:17;36;;;29;;
45072;SDS011;30836;48.906;9.140;2022-08-05T03:45:17;36;;;29;;
45072;SDS011;30836;48.906;9.140;2022-08-05T03:46:18;36;;;29;;
45072;SDS011;30836;48.906;9.140;2022-08-05T03:47:18;39;;;31;;
45072;SDS011;30836;48.906;9.140;2022-08-05T03:48:20;36;;;29;;
45072;SDS011;30836;48.906;9.140;2022-08-05T03:49:20;39;;;31;;
45072;SDS011;30836;48.906;9.140;2022-08-05T03:50:21;36;;;29;;
45072;SDS011;30836;48.906;9.140;2022-08-05T03:51:31;38;;;30;;
45072;SDS011;30836;48.906;9.140;2022-08-05T03:53:54;38;;;30;;
45072;SDS011;30836;48.906;9.140;2022-08-05T03:55:02;39;;;31;;
45072;SDS011;30836;48.906;9.140;2022-08-05T03:56:10;39;;;31;;
45072;SDS011;30836;48.906;9.140;2022-08-05T03:57:13;41;;;33;;
45072;SDS011;30836;48.906;9.140;2022-08-05T03:58:16;40;;;32;;
45072;SDS011;30836;48.906;9.140;2022-08-05T03:59:22;40;;;32;;
45072;SDS011;30836;48.906;9.140;2022-08-05T04:00:24;40;;;32;;
45072;SDS011;30836;48.906;9.140;2022-08-05T04:00:36;40;;;32;;
45072;SDS011;30836;48.906;9.140;2022-08-05T04:01:41;41;;;33;;
45072;SDS011;30836;48.906;9.140;2022-08-05T04:02:47;41;;;33;;
45072;SDS011;30836;48.906;9.140;2022-08-05T04:03:49;42;;;34;;
45072;SDS011;30836;48.906;9.140;2022-08-05T04:04:51;42;;;34;;
45072;SDS011;30836;48.906;9.140;2022-08-05T04:05:52;43;;;35;;
45072;SDS011;30836;48.906;9.140;2022-08-05T04:06:54;47;;;38;;
45072;SDS011;30836;48.906;9.140;2022-08-05T04:07:54;45;;;36;;
45072;SDS011;30836;48.906;9.140;2022-08-05T04:08:56;52;;;42;;
45072;SDS011;30836;48.906;9.140;2022-08-05T04:09:57;49;;;40;;
45072;SDS011;30836;48.906;9.140;2022-08-05T04:10:59;46;;;37;;
45072;SDS011;30836;48.906;9.140;2022-08-05T04:12:00;51;;;41;;
45072;SDS011;30836;48.906;9.140;2022-08-05T04:13:01;45;;;36;;
45072;SDS011;30836;48.906;9.140;2022-08-05T04:14:03;44;;;35;;
45072;SDS011;30836;48.906;9.140;2022-08-05T04:15:04;44;;;35;;
45072;SDS011;30836;48.906;9.140;2022-08-05T04:16:07;47;;;38;;
45072;SDS011;30836;48.906;9.140;2022-08-05T04:17:09;47;;;38;;
45072;SDS011;30836;48.906;9.140;2022-08-05T04:18:10;58;;;47;;
45072;SDS011;30836;48.906;9.140;2022-08-05T04:19:11;66;;;53;;
45072;SDS011;30836;48.906;9.140;2022-08-05T04:20:18;54;;;44;;
45072;SDS011;30836;48.906;9.140;2022-08-05T04:21:19;51;;;41;;
45072;SDS011;30836;48.906;9.140;2022-08-05T04:22:19;53;;;43;;
45072;SDS011;30836;48.906;9.140;2022-08-05T04:23:22;41;;;33;;
45072;SDS011;30836;48.906;9.140;2022-08-05T04:24:22;40;;;32;;
45072;SDS011;30836;48.906;9.140;2022-08-05T04:25:23;38;;;30;;
45072;SDS011;30836;48.906;9.140;2022-08-05T04:26:24;38;;;30;;
45072;SDS011;30836;48.906;9.140;2022-08-05T04:27:24;39;;;31;;
45072;SDS011;30836;48.906;9.140;2022-08-05T04:28:25;39;;;31;;
45072;SDS011;30836;48.906;9.140;2022-08-05T04:29:25;39;;;31;;
45072;SDS011;30836;48.906;9.140;2022-08-05T04:30:25;36;;;29;;
45072;SDS011;30836;48.906;9.140;2022-08-05T04:31:26;40;;;32;;
45072;SDS011;30836;48.906;9.140;2022-08-05T04:32:26;39;;;31;;
45072;SDS011;30836;48.906;9.140;2022-08-05T04:33:27;42;;;34;;
45072;SDS011;30836;48.906;9.140;2022-08-05T04:34:28;47;;;38;;
45072;SDS011;30836;48.906;9.140;2022-08-05T04:35:28;43;;;35;;
45072;SDS011;30836;48.906;9.140;2022-08-05T04:36:29;40;;;32;;
45072;SDS011;30836;48.906;9.140;2022-08-05T04:37:29;41;;;33;;
45072;SDS011;30836;48.906;9.140;2022-08-05T04:38:30;40;;;32;;
45072;SDS011;30836;48.906;9.140;2022-08-05T04:39:30;39;;;31;;
45072;SDS011;30836;48.906;9.140;2022-08-05T04:40:35;39;;;31;;
45072;SDS011;30836;48.906;9.140;2022-08-05T04:41:36;39;;;31;;
45072;SDS011;30836;48.906;9.140;2022-08-05T04:42:36;38;;;30;;
45072;SDS011;30836;48.906;9.140;2022-08-05T04:43:37;39;;;31;;
45072;SDS011;30836;48.906;9.140;2022-08-05T04:44:38;36;;;29;;
45072;SDS011;30836;48.906;9.140;2022-08-05T04:45:38;39;;;31;;
45072;SDS011;30836;48.906;9.140;2022-08-05T04:46:39;40;;;32;;
45072;SDS011;30836;48.906;9.140;2022-08-05T04:47:39;39;;;31;;
45072;SDS011;30836;48.906;9.140;2022-08-05T04:48:40;40;;;32;;
45072;SDS011;30836;48.906;9.140;2022-08-05T04:49:40;40;;;32;;
45072;SDS011;30836;48.906;9.140;2022-08-05T04:50:46;39;;;31;;
45072;SDS011;30836;48.906;9.140;2022-08-05T04:51:47;36;;;29;;
45072;SDS011;30836;48.906;9.140;2022-08-05T04:52:47;38;;;30;;
45072;SDS011;30836;48.906;9.140;2022-08-05T04:53:48;39;;;31;;
45072;SDS011;30836;48.906;9.140;2022-08-05T04:54:48;40;;;32;;
45072;SDS011;30836;48.906;9.140;2022-08-05T04:55:49;39;;;31;;
45072;SDS011;30836;48.906;9.140;2022-08-05T04:56:49;40;;;32;;
45072;SDS011;30836;48.906;9.140;2022-08-05T04:57:49;40;;;32;;
45072;SDS011;30836;48.906;9.140;2022-08-05T04:58:50;39;;;31;;
45072;SDS011;30836;48.906;9.140;2022-08-05T04:59:51;38;;;30;;
45072;SDS011;30836;48.906;9.140;2022-08-05T05:00:51;36;;;29;;
45072;SDS011;30836;48.906;9.140;2022-08-05T05:01:51;36;;;29;;
45072;SDS011;30836;48.906;9.140;2022-08-05T05:02:52;36;;;29;;
45072;SDS011;30836;48.906;9.140;2022-08-05T05:03:52;36;;;29;;
45072;SDS011;30836;48.906;9.140;2022-08-05T05:04:53;36;;;29;;
45072;SDS011;30836;48.906;9.140;2022-08-05T05:05:53;36;;;29;;
45072;SDS011;30836;48.906;9.140;2022-08-05T05:06:54;37;;;30;;
45072;SDS011;30836;48.906;9.140;2022-08-05T05:07:56;38;;;30;;
45072;SDS011;30836;48.906;9.140;2022-08-05T05:08:58;40;;;32;;
45072;SDS011;30836;48.906;9.140;2022-08-05T05:09:59;38;;;30;;
45072;SDS011;30836;48.906;9.140;2022-08-05T05:10:59;39;;;31;;
45072;SDS011;30836;48.906;9.140;2022-08-05T05:12:00;37;;;29;;
45072;SDS011;30836;48.906;9.140;2022-08-05T05:13:00;36;;;29;;
45072;SDS011;30836;48.906;9.140;2022-08-05T05:14:00;39;;;31;;
45072;SDS011;30836;48.906;9.140;2022-08-05T05:15:01;36;;;29;;
45072;SDS011;30836;48.906;9.140;2022-08-05T05:16:02;38;;;30;;
45072;SDS011;30836;48.906;9.140;2022-08-05T05:17:02;39;;;31;;
45072;SDS011;30836;48.906;9.140;2022-08-05T05:18:03;39;;;31;;
45072;SDS011;30836;48.906;9.140;2022-08-05T05:19:04;39;;;31;;
45072;SDS011;30836;48.906;9.140;2022-08-05T05:20:05;41;;;33;;
45072;SDS011;30836;48.906;9.140;2022-08-05T05:21:06;42;;;34;;
45072;SDS011;30836;48.906;9.140;2022-08-05T05:22:07;42;;;34;;
45072;SDS011;30836;48.906;9.140;2022-08-05T05:23:07;41;;;33;;
45072;SDS011;30836;48.906;9.140;2022-08-05T05:24:07;40;;;32;;
45072;SDS011;30836;48.906;9.140;2022-08-05T05:25:08;40;;;32;;
45072;SDS011;30836;48.906;9.140;2022-08-05T05:26:09;40;;;32;;
45072;SDS011;30836;48.906;9.140;2022-08-05T05:27:09;42;;;34;;
45072;SDS011;30836;48.906;9.140;2022-08-05T05:28:10;40;;;32;;
45072;SDS011;30836;48.906;9.140;2022-08-05T05:29:11;42;;;34;;
45072;SDS011;30836;48.906;9.140;2022-08-05T05:30:13;40;;;32;;
45072;SDS011;30836;48.906;9.140;2022-08-05T05:31:14;39;;;31;;
45072;SDS011;30836;48.906;9.140;2022-08-05T05:32:14;39;;;31;;
45072;SDS011;30836;48.906;9.140;2022-08-05T05:33:15;40;;;32;;
45072;SDS011;30836;48.906;9.140;2022-08-05T05:34:15;39;;;31;;
45072;SDS011;30836;48.906;9.140;2022-08-05T05:35:16;39;;;31;;
45072;SDS011;30836;48.906;9.140;2022-08-05T05:36:16;45;;;36;;
45072;SDS011;30836;48.906;9.140;2022-08-05T05:37:17;42;;;34;;
45072;SDS011;30836;48.906;9.140;2022-08-05T05:38:17;45;;;36;;
45072;SDS011;30836;48.906;9.140;2022-08-05T05:39:18;47;;;38;;
45072;SDS011;30836;48.906;9.140;2022-08-05T05:40:21;47;;;38;;
45072;SDS011;30836;48.906;9.140;2022-08-05T05:41:22;47;;;38;;
45072;SDS011;30836;48.906;9.140;2022-08-05T05:42:22;45;;;36;;
45072;SDS011;30836;48.906;9.140;2022-08-05T05:43:23;46;;;37;;
45072;SDS011;30836;48.906;9.140;2022-08-05T05:44:24;45;;;36;;
45072;SDS011;30836;48.906;9.140;2022-08-05T05:45:25;44;;;35;;
45072;SDS011;30836;48.906;9.140;2022-08-05T05:46:25;44;;;35;;
45072;SDS011;30836;48.906;9.140;2022-08-05T05:47:26;44;;;35;;
45072;SDS011;30836;48.906;9.140;2022-08-05T05:48:26;46;;;37;;
45072;SDS011;30836;48.906;9.140;2022-08-05T05:49:27;40;;;32;;
45072;SDS011;30836;48.906;9.140;2022-08-05T05:50:27;42;;;34;;
45072;SDS011;30836;48.906;9.140;2022-08-05T05:51:28;40;;;32;;
45072;SDS011;30836;48.906;9.140;2022-08-05T05:52:28;40;;;32;;
45072;SDS011;30836;48.906;9.140;2022-08-05T05:53:29;40;;;32;;
45072;SDS011;30836;48.906;9.140;2022-08-05T05:54:29;41;;;33;;
45072;SDS011;30836;48.906;9.140;2022-08-05T05:55:29;41;;;33;;
45072;SDS011;30836;48.906;9.140;2022-08-05T05:56:30;44;;;35;;
45072;SDS011;30836;48.906;9.140;2022-08-05T05:57:31;44;;;35;;
45072;SDS011;30836;48.906;9.140;2022-08-05T05:58:31;44;;;35;;
45072;SDS011;30836;48.906;9.140;2022-08-05T05:59:32;44;;;35;;
45072;SDS011;30836;48.906;9.140;2022-08-05T06:00:32;46;;;37;;
45072;SDS011;30836;48.906;9.140;2022-08-05T06:01:35;44;;;35;;
45072;SDS011;30836;48.906;9.140;2022-08-05T06:02:36;44;;;35;;
45072;SDS011;30836;48.906;9.140;2022-08-05T06:03:36;44;;;35;;
45072;SDS011;30836;48.906;9.140;2022-08-05T06:04:37;44;;;35;;
45072;SDS011;30836;48.906;9.140;2022-08-05T06:05:37;47;;;38;;
45072;SDS011;30836;48.906;9.140;2022-08-05T06:06:39;47;;;38;;
45072;SDS011;30836;48.906;9.140;2022-08-05T06:07:40;45;;;36;;
45072;SDS011;30836;48.906;9.140;2022-08-05T06:08:41;45;;;36;;
45072;SDS011;30836;48.906;9.140;2022-08-05T06:09:41;46;;;37;;
45072;SDS011;30836;48.906;9.140;2022-08-05T06:10:42;47;;;38;;
45072;SDS011;30836;48.906;9.140;2022-08-05T06:11:42;49;;;40;;
45072;SDS011;30836;48.906;9.140;2022-08-05T06:12:42;54;;;44;;
45072;SDS011;30836;48.906;9.140;2022-08-05T06:13:43;52;;;42;;
45072;SDS011;30836;48.906;9.140;2022-08-05T06:14:43;54;;;44;;
45072;SDS011;30836;48.906;9.140;2022-08-05T06:15:44;49;;;40;;
45072;SDS011;30836;48.906;9.140;2022-08-05T06:16:44;51;;;41;;
45072;SDS011;30836;48.906;9.140;2022-08-05T06:17:45;48;;;39;;
45072;SDS011;30836;48.906;9.140;2022-08-05T06:18:45;47;;;38;;
45072;SDS011;30836;48.906;9.140;2022-08-05T06:19:46;44;;;35;;
45072;SDS011;30836;48.906;9.140;2022-08-05T06:20:46;46;;;37;;
45072;SDS011;30836;48.906;9.140;2022-08-05T06:21:46;47;;;38;;
45072;SDS011;30836;48.906;9.140;2022-08-05T06:22:47;47;;;38;;
45072;SDS011;30836;48.906;9.140;2022-08-05T06:23:47;46;;;37;;
45072;SDS011;30836;48.906;9.140;2022-08-05T06:24:48;51;;;41;;
45072;SDS011;30836;48.906;9.140;2022-08-05T06:25:48;48;;;39;;
45072;SDS011;30836;48.906;9.140;2022-08-05T06:26:49;51;;;41;;
45072;SDS011;30836;48.906;9.140;2022-08-05T06:27:49;49;;;40;;
45072;SDS011;30836;48.906;9.140;2022-08-05T06:28:50;46;;;37;;
45072;SDS011;30836;48.906;9.140;2022-08-05T06:29:50;47;;;38;;
45072;SDS011;30836;48.906;9.140;2022-08-05T06:30:51;46;;;37;;
45072;SDS011;30836;48.906;9.140;2022-08-05T06:31:51;49;;;40;;
45072;SDS011;30836;48.906;9.140;2022-08-05T06:32:52;51;;;41;;
45072;SDS011;30836;48.906;9.140;2022-08-05T06:33:52;58;;;47;;
45072;SDS011;30836;48.906;9.140;2022-08-05T06:34:54;60;;;49;;
45072;SDS011;30836;48.906;9.140;2022-08-05T06:35:54;64;;;52;;
45072;SDS011;30836;48.906;9.140;2022-08-05T06:36:54;60;;;49;;
45072;SDS011;30836;48.906;9.140;2022-08-05T06:37:55;58;;;47;;
45072;SDS011;30836;48.906;9.140;2022-08-05T06:38:55;53;;;43;;
45072;SDS011;30836;48.906;9.140;2022-08-05T06:39:56;49;;;40;;
45072;SDS011;30836;48.906;9.140;2022-08-05T06:40:56;47;;;38;;
45072;SDS011;30836;48.906;9.140;2022-08-05T06:41:58;45;;;36;;
45072;SDS011;30836;48.906;9.140;2022-08-05T06:42:58;46;;;37;;
45072;SDS011;30836;48.906;9.140;2022-08-05T06:43:59;44;;;35;;
45072;SDS011;30836;48.906;9.140;2022-08-05T06:44:59;45;;;36;;